sensor_id;sensor_type;location;lat;lon;timestamp;temperature;humidity
5792;DHT22;2922;53.482;10.006;2022-07-22T00:01:47;19.30;99.90
5792;DHT22;2922;53.482;10.006;2022-07-22T00:04:12;19.20;99.90
5792;DHT22;2922;53.482;10.006;2022-07-22T00:06:38;19.20;99.90
5792;DHT22;2922;53.482;10.006;2022-07-22T00:09:04;19.20;99.90
5792;DHT22;2922;53.482;10.006;2022-07-22T00:11:29;19.20;99.90
5792;DHT22;2922;53.482;10.006;2022-07-22T00:13:55;19.20;99.90
5792;DHT22;2922;53.482;10.006;2022-07-22T00:16:21;19.20;99.90
5792;DHT22;2922;53.482;10.006;2022-07-22T00:18:46;19.20;99.90
5792;DHT22;2922;53.482;10.006;2022-07-22T00:21:12;19.10;99.90
5792;DHT22;2922;53.482;10.006;2022-07-22T00:23:38;19.20;99.90
5792;DHT22;2922;53.482;10.006;2022-07-22T00:26:04;19.10;99.90
5792;DHT22;2922;53.482;10.006;2022-07-22T00:28:29;19.20;99.90
5792;DHT22;2922;53.482;10.006;2022-07-22T00:30:57;19.20;99.90
5792;DHT22;2922;53.482;10.006;2022-07-22T00:33:24;19.10;99.90
5792;DHT22;2922;53.482;10.006;2022-07-22T00:35:49;19.00;99.90
5792;DHT22;2922;53.482;10.006;2022-07-22T00:38:15;18.90;99.90
5792;DHT22;2922;53.482;10.006;2022-07-22T00:40:41;18.80;99.90
5792;DHT22;2922;53.482;10.006;2022-07-22T00:43:07;18.60;99.90
5792;DHT22;2922;53.482;10.006;2022-07-22T00:45:32;18.60;99.90
5792;DHT22;2922;53.482;10.006;2022-07-22T00:47:58;18.50;99.90
5792;DHT22;2922;53.482;10.006;2022-07-22T00:50:24;18.50;99.90
5792;DHT22;2922;53.482;10.006;2022-07-22T00:52:50;18.40;99.90
5792;DHT22;2922;53.482;10.006;2022-07-22T00:55:16;18.40;99.90
5792;DHT22;2922;53.482;10.006;2022-07-22T00:57:42;18.30;99.90
5792;DHT22;2922;53.482;10.006;2022-07-22T01:00:11;18.30;99.90
5792;DHT22;2922;53.482;10.006;2022-07-22T01:02:37;18.20;99.90
5792;DHT22;2922;53.482;10.006;2022-07-22T01:05:05;18.10;99.90
5792;DHT22;2922;53.482;10.006;2022-07-22T01:07:30;18.00;99.90
5792;DHT22;2922;53.482;10.006;2022-07-22T01:09:56;18.00;99.90
5792;DHT22;2922;53.482;10.006;2022-07-22T01:12:21;17.90;99.90
5792;DHT22;2922;53.482;10.006;2022-07-22T01:14:47;17.90;99.90
5792;DHT22;2922;53.482;10.006;2022-07-22T01:17:13;17.90;99.90
5792;DHT22;2922;53.482;10.006;2022-07-22T01:19:38;17.80;99.90
5792;DHT22;2922;53.482;10.006;2022-07-22T01:22:05;17.80;99.90
5792;DHT22;2922;53.482;10.006;2022-07-22T01:24:31;17.70;99.90
5792;DHT22;2922;53.482;10.006;2022-07-22T01:26:56;17.60;99.90
5792;DHT22;2922;53.482;10.006;2022-07-22T01:29:22;17.60;99.90
5792;DHT22;2922;53.482;10.006;2022-07-22T01:31:48;17.60;99.90
5792;DHT22;2922;53.482;10.006;2022-07-22T01:34:13;17.60;99.90
5792;DHT22;2922;53.482;10.006;2022-07-22T01:36:39;17.50;99.90
5792;DHT22;2922;53.482;10.006;2022-07-22T01:39:04;17.40;99.90
5792;DHT22;2922;53.482;10.006;2022-07-22T01:41:30;17.40;99.90
5792;DHT22;2922;53.482;10.006;2022-07-22T01:43:56;17.30;99.90
5792;DHT22;2922;53.482;10.006;2022-07-22T01:46:22;17.30;99.90
5792;DHT22;2922;53.482;10.006;2022-07-22T01:48:52;17.30;99.90
5792;DHT22;2922;53.482;10.006;2022-07-22T01:51:19;17.30;99.90
5792;DHT22;2922;53.482;10.006;2022-07-22T01:53:44;17.20;99.90
5792;DHT22;2922;53.482;10.006;2022-07-22T01:56:11;17.20;99.90
5792;DHT22;2922;53.482;10.006;2022-07-22T01:58:36;17.20;99.90
5792;DHT22;2922;53.482;10.006;2022-07-22T02:01:02;17.10;99.90
5792;DHT22;2922;53.482;10.006;2022-07-22T02:03:28;17.10;99.90
5792;DHT22;2922;53.482;10.006;2022-07-22T02:05:53;17.10;99.90
5792;DHT22;2922;53.482;10.006;2022-07-22T02:08:20;17.10;99.90
5792;DHT22;2922;53.482;10.006;2022-07-22T02:10:45;17.10;99.90
5792;DHT22;2922;53.482;10.006;2022-07-22T02:13:11;17.00;99.90
5792;DHT22;2922;53.482;10.006;2022-07-22T02:15:37;17.00;99.90
5792;DHT22;2922;53.482;10.006;2022-07-22T02:18:14;17.00;99.90
5792;DHT22;2922;53.482;10.006;2022-07-22T02:20:40;17.00;99.90
5792;DHT22;2922;53.482;10.006;2022-07-22T02:23:06;16.90;99.90
5792;DHT22;2922;53.482;10.006;2022-07-22T02:25:32;16.90;99.90
5792;DHT22;2922;53.482;10.006;2022-07-22T02:27:58;16.90;99.90
5792;DHT22;2922;53.482;10.006;2022-07-22T02:30:24;16.80;99.90
5792;DHT22;2922;53.482;10.006;2022-07-22T02:32:49;16.80;99.90
5792;DHT22;2922;53.482;10.006;2022-07-22T02:35:15;16.70;99.90
5792;DHT22;2922;53.482;10.006;2022-07-22T02:37:40;16.70;99.90
5792;DHT22;2922;53.482;10.006;2022-07-22T02:40:06;16.60;99.90
5792;DHT22;2922;53.482;10.006;2022-07-22T02:42:33;16.70;99.90
5792;DHT22;2922;53.482;10.006;2022-07-22T02:44:59;16.70;99.90
5792;DHT22;2922;53.482;10.006;2022-07-22T02:47:25;16.70;99.90
5792;DHT22;2922;53.482;10.006;2022-07-22T02:49:51;16.60;99.90
5792;DHT22;2922;53.482;10.006;2022-07-22T02:52:17;16.60;99.90
5792;DHT22;2922;53.482;10.006;2022-07-22T02:54:43;16.70;99.90
5792;DHT22;2922;53.482;10.006;2022-07-22T02:57:08;16.60;99.90
5792;DHT22;2922;53.482;10.006;2022-07-22T02:59:34;16.70;99.90
5792;DHT22;2922;53.482;10.006;2022-07-22T03:02:00;16.60;99.90
5792;DHT22;2922;53.482;10.006;2022-07-22T03:04:25;16.60;99.90
5792;DHT22;2922;53.482;10.006;2022-07-22T03:06:51;16.60;99.90
5792;DHT22;2922;53.482;10.006;2022-07-22T03:09:17;16.60;99.90
5792;DHT22;2922;53.482;10.006;2022-07-22T03:11:42;16.60;99.90
5792;DHT22;2922;53.482;10.006;2022-07-22T03:14:08;16.60;99.90
5792;DHT22;2922;53.482;10.006;2022-07-22T03:16:33;16.60;99.90
5792;DHT22;2922;53.482;10.006;2022-07-22T03:18:59;16.70;99.90
5792;DHT22;2922;53.482;10.006;2022-07-22T03:21:24;16.60;99.90
5792;DHT22;2922;53.482;10.006;2022-07-22T03:23:50;16.60;99.90
5792;DHT22;2922;53.482;10.006;2022-07-22T03:26:19;16.60;99.90
5792;DHT22;2922;53.482;10.006;2022-07-22T03:28:46;16.60;99.90
5792;DHT22;2922;53.482;10.006;2022-07-22T03:31:12;16.50;99.90
5792;DHT22;2922;53.482;10.006;2022-07-22T03:33:38;16.50;99.90
5792;DHT22;2922;53.482;10.006;2022-07-22T03:36:03;16.40;99.90
5792;DHT22;2922;53.482;10.006;2022-07-22T03:38:31;16.40;99.90
5792;DHT22;2922;53.482;10.006;2022-07-22T03:40:56;16.40;99.90
5792;DHT22;2922;53.482;10.006;2022-07-22T03:43:22;16.30;99.90
5792;DHT22;2922;53.482;10.006;2022-07-22T03:45:48;16.30;99.90
5792;DHT22;2922;53.482;10.006;2022-07-22T03:48:13;16.30;99.90
5792;DHT22;2922;53.482;10.006;2022-07-22T03:50:39;16.30;99.90
5792;DHT22;2922;53.482;10.006;2022-07-22T03:53:04;16.30;99.90
5792;DHT22;2922;53.482;10.006;2022-07-22T03:55:30;16.20;99.90
5792;DHT22;2922;53.482;10.006;2022-07-22T03:57:55;16.20;99.90
5792;DHT22;2922;53.482;10.006;2022-07-22T04:00:21;16.20;99.90
5792;DHT22;2922;53.482;10.006;2022-07-22T04:02:47;16.10;99.90
5792;DHT22;2922;53.482;10.006;2022-07-22T04:05:12;16.20;99.90
5792;DHT22;2922;53.482;10.006;2022-07-22T04:07:38;16.10;99.90
5792;DHT22;2922;53.482;10.006;2022-07-22T04:10:04;16.20;99.90
5792;DHT22;2922;53.482;10.006;2022-07-22T04:12:37;16.10;99.90
5792;DHT22;2922;53.482;10.006;2022-07-22T04:15:05;16.10;99.90
5792;DHT22;2922;53.482;10.006;2022-07-22T04:17:31;16.10;99.90
5792;DHT22;2922;53.482;10.006;2022-07-22T04:19:56;16.10;99.90
5792;DHT22;2922;53.482;10.006;2022-07-22T04:22:22;16.10;99.90
5792;DHT22;2922;53.482;10.006;2022-07-22T04:24:48;16.10;99.90
5792;DHT22;2922;53.482;10.006;2022-07-22T04:27:14;16.10;99.90
5792;DHT22;2922;53.482;10.006;2022-07-22T04:29:39;16.10;99.90
5792;DHT22;2922;53.482;10.006;2022-07-22T04:32:05;16.10;99.90
5792;DHT22;2922;53.482;10.006;2022-07-22T04:34:31;16.10;99.90
5792;DHT22;2922;53.482;10.006;2022-07-22T04:36:58;16.10;99.90
5792;DHT22;2922;53.482;10.006;2022-07-22T04:39:23;16.10;99.90
5792;DHT22;2922;53.482;10.006;2022-07-22T04:41:49;16.10;99.90
5792;DHT22;2922;53.482;10.006;2022-07-22T04:44:14;16.10;99.90
5792;DHT22;2922;53.482;10.006;2022-07-22T04:46:40;16.10;99.90
5792;DHT22;2922;53.482;10.006;2022-07-22T04:49:06;16.10;99.90
5792;DHT22;2922;53.482;10.006;2022-07-22T04:51:31;16.00;99.90
5792;DHT22;2922;53.482;10.006;2022-07-22T04:53:57;16.00;99.90
5792;DHT22;2922;53.482;10.006;2022-07-22T04:56:22;16.00;99.90
5792;DHT22;2922;53.482;10.006;2022-07-22T04:58:48;16.10;99.90
5792;DHT22;2922;53.482;10.006;2022-07-22T05:01:13;16.10;99.90
5792;DHT22;2922;53.482;10.006;2022-07-22T05:03:40;16.10;99.90
5792;DHT22;2922;53.482;10.006;2022-07-22T05:06:06;16.20;99.90
5792;DHT22;2922;53.482;10.006;2022-07-22T05:08:31;16.10;99.90
5792;DHT22;2922;53.482;10.006;2022-07-22T05:10:57;16.20;99.90
5792;DHT22;2922;53.482;10.006;2022-07-22T05:13:22;16.20;99.90
5792;DHT22;2922;53.482;10.006;2022-07-22T05:15:48;16.20;99.90
5792;DHT22;2922;53.482;10.006;2022-07-22T05:18:14;16.30;99.90
5792;DHT22;2922;53.482;10.006;2022-07-22T05:20:40;16.30;99.90
5792;DHT22;2922;53.482;10.006;2022-07-22T05:23:06;16.30;99.90
5792;DHT22;2922;53.482;10.006;2022-07-22T05:25:31;16.30;99.90
5792;DHT22;2922;53.482;10.006;2022-07-22T05:27:57;16.40;99.90
5792;DHT22;2922;53.482;10.006;2022-07-22T05:30:23;16.30;99.90
5792;DHT22;2922;53.482;10.006;2022-07-22T05:32:48;16.30;99.90
5792;DHT22;2922;53.482;10.006;2022-07-22T05:35:14;16.20;99.90
5792;DHT22;2922;53.482;10.006;2022-07-22T05:37:40;16.10;99.90
5792;DHT22;2922;53.482;10.006;2022-07-22T05:40:06;16.00;99.90
5792;DHT22;2922;53.482;10.006;2022-07-22T05:42:31;16.10;99.90
5792;DHT22;2922;53.482;10.006;2022-07-22T05:44:57;16.10;99.90
5792;DHT22;2922;53.482;10.006;2022-07-22T05:47:23;16.10;99.90
5792;DHT22;2922;53.482;10.006;2022-07-22T05:49:48;16.10;99.90
5792;DHT22;2922;53.482;10.006;2022-07-22T05:52:14;16.20;99.90
5792;DHT22;2922;53.482;10.006;2022-07-22T05:54:39;16.10;99.90
5792;DHT22;2922;53.482;10.006;2022-07-22T05:57:05;16.20;99.90
5792;DHT22;2922;53.482;10.006;2022-07-22T05:59:35;16.30;99.90
5792;DHT22;2922;53.482;10.006;2022-07-22T06:02:01;16.30;99.90
5792;DHT22;2922;53.482;10.006;2022-07-22T06:04:27;16.30;99.90
5792;DHT22;2922;53.482;10.006;2022-07-22T06:06:53;16.20;99.90
5792;DHT22;2922;53.482;10.006;2022-07-22T06:09:18;16.30;99.90
5792;DHT22;2922;53.482;10.006;2022-07-22T06:11:44;16.30;99.90
5792;DHT22;2922;53.482;10.006;2022-07-22T06:14:10;16.40;99.90
5792;DHT22;2922;53.482;10.006;2022-07-22T06:16:35;16.50;99.90
5792;DHT22;2922;53.482;10.006;2022-07-22T06:19:02;16.60;99.90
5792;DHT22;2922;53.482;10.006;2022-07-22T06:21:27;16.50;99.90
5792;DHT22;2922;53.482;10.006;2022-07-22T06:23:53;16.60;99.90
5792;DHT22;2922;53.482;10.006;2022-07-22T06:26:18;16.70;99.90
5792;DHT22;2922;53.482;10.006;2022-07-22T06:28:44;16.70;99.90
5792;DHT22;2922;53.482;10.006;2022-07-22T06:31:10;16.70;99.90
5792;DHT22;2922;53.482;10.006;2022-07-22T06:33:35;16.80;99.90
5792;DHT22;2922;53.482;10.006;2022-07-22T06:36:02;16.80;99.90
5792;DHT22;2922;53.482;10.006;2022-07-22T06:38:27;16.80;99.90
5792;DHT22;2922;53.482;10.006;2022-07-22T06:40:53;16.90;99.90
5792;DHT22;2922;53.482;10.006;2022-07-22T06:43:18;17.00;99.90
5792;DHT22;2922;53.482;10.006;2022-07-22T06:45:44;17.10;99.90
5792;DHT22;2922;53.482;10.006;2022-07-22T06:48:10;17.10;99.90
5792;DHT22;2922;53.482;10.006;2022-07-22T06:50:35;17.10;99.90
5792;DHT22;2922;53.482;10.006;2022-07-22T06:53:01;17.10;99.90
5792;DHT22;2922;53.482;10.006;2022-07-22T06:55:26;17.30;99.90
5792;DHT22;2922;53.482;10.006;2022-07-22T06:57:52;17.40;99.90
5792;DHT22;2922;53.482;10.006;2022-07-22T07:00:18;17.50;99.90
5792;DHT22;2922;53.482;10.006;2022-07-22T07:02:44;17.60;99.90
5792;DHT22;2922;53.482;10.006;2022-07-22T07:05:10;17.60;99.90
5792;DHT22;2922;53.482;10.006;2022-07-22T07:07:36;17.60;99.90
5792;DHT22;2922;53.482;10.006;2022-07-22T07:10:02;17.70;99.90
5792;DHT22;2922;53.482;10.006;2022-07-22T07:12:28;17.70;99.90
5792;DHT22;2922;53.482;10.006;2022-07-22T07:14:54;17.70;99.90
5792;DHT22;2922;53.482;10.006;2022-07-22T07:17:19;17.60;99.90
5792;DHT22;2922;53.482;10.006;2022-07-22T07:19:45;17.80;99.90
5792;DHT22;2922;53.482;10.006;2022-07-22T07:22:10;17.80;99.90
5792;DHT22;2922;53.482;10.006;2022-07-22T07:24:36;17.70;99.90
5792;DHT22;2922;53.482;10.006;2022-07-22T07:27:02;17.70;99.90
5792;DHT22;2922;53.482;10.006;2022-07-22T07:29:27;17.70;99.90
5792;DHT22;2922;53.482;10.006;2022-07-22T07:31:53;17.70;99.90
5792;DHT22;2922;53.482;10.006;2022-07-22T07:34:19;17.60;99.90
5792;DHT22;2922;53.482;10.006;2022-07-22T07:36:44;17.70;99.90
5792;DHT22;2922;53.482;10.006;2022-07-22T07:39:10;17.80;99.90
5792;DHT22;2922;53.482;10.006;2022-07-22T07:41:36;17.60;99.90
5792;DHT22;2922;53.482;10.006;2022-07-22T07:44:01;17.70;99.90
5792;DHT22;2922;53.482;10.006;2022-07-22T07:46:27;17.70;99.90
5792;DHT22;2922;53.482;10.006;2022-07-22T07:48:52;17.70;99.90
5792;DHT22;2922;53.482;10.006;2022-07-22T07:51:18;17.70;99.90
5792;DHT22;2922;53.482;10.006;2022-07-22T07:53:44;17.80;99.90
5792;DHT22;2922;53.482;10.006;2022-07-22T07:56:09;17.80;99.90
5792;DHT22;2922;53.482;10.006;2022-07-22T07:58:35;17.80;99.90
5792;DHT22;2922;53.482;10.006;2022-07-22T08:01:00;17.90;99.90
5792;DHT22;2922;53.482;10.006;2022-07-22T08:03:26;17.90;99.90
5792;DHT22;2922;53.482;10.006;2022-07-22T08:05:51;17.90;99.90
5792;DHT22;2922;53.482;10.006;2022-07-22T08:08:17;18.00;99.90
5792;DHT22;2922;53.482;10.006;2022-07-22T08:10:43;18.00;99.90
5792;DHT22;2922;53.482;10.006;2022-07-22T08:13:08;18.10;99.90
5792;DHT22;2922;53.482;10.006;2022-07-22T08:15:34;18.30;99.90
5792;DHT22;2922;53.482;10.006;2022-07-22T08:18:03;18.40;99.90
5792;DHT22;2922;53.482;10.006;2022-07-22T08:20:29;18.50;99.90
5792;DHT22;2922;53.482;10.006;2022-07-22T08:22:54;18.60;99.90
5792;DHT22;2922;53.482;10.006;2022-07-22T08:25:21;18.60;99.90
5792;DHT22;2922;53.482;10.006;2022-07-22T08:27:46;18.60;99.90
5792;DHT22;2922;53.482;10.006;2022-07-22T08:30:12;18.40;99.90
5792;DHT22;2922;53.482;10.006;2022-07-22T08:32:39;18.40;99.90
5792;DHT22;2922;53.482;10.006;2022-07-22T08:35:05;18.20;99.90
5792;DHT22;2922;53.482;10.006;2022-07-22T08:37:31;18.00;99.90
5792;DHT22;2922;53.482;10.006;2022-07-22T08:39:56;18.10;99.90
5792;DHT22;2922;53.482;10.006;2022-07-22T08:42:24;18.00;99.90
5792;DHT22;2922;53.482;10.006;2022-07-22T08:44:50;18.10;99.90
5792;DHT22;2922;53.482;10.006;2022-07-22T08:47:21;18.10;99.90
5792;DHT22;2922;53.482;10.006;2022-07-22T08:49:47;18.10;99.90
5792;DHT22;2922;53.482;10.006;2022-07-22T08:52:13;18.10;99.90
5792;DHT22;2922;53.482;10.006;2022-07-22T08:54:38;18.10;99.90
5792;DHT22;2922;53.482;10.006;2022-07-22T08:57:04;18.00;99.90
5792;DHT22;2922;53.482;10.006;2022-07-22T08:59:29;18.20;99.90
5792;DHT22;2922;53.482;10.006;2022-07-22T09:02:07;18.30;99.90
5792;DHT22;2922;53.482;10.006;2022-07-22T09:04:54;18.40;99.90
5792;DHT22;2922;53.482;10.006;2022-07-22T09:09:52;18.80;99.90
5792;DHT22;2922;53.482;10.006;2022-07-22T09:12:18;18.80;99.90
5792;DHT22;2922;53.482;10.006;2022-07-22T09:14:48;18.70;99.90
5792;DHT22;2922;53.482;10.006;2022-07-22T09:17:33;18.70;99.90
5792;DHT22;2922;53.482;10.006;2022-07-22T09:20:14;18.80;99.90
5792;DHT22;2922;53.482;10.006;2022-07-22T09:22:43;18.70;99.90
5792;DHT22;2922;53.482;10.006;2022-07-22T09:25:34;18.70;99.90
5792;DHT22;2922;53.482;10.006;2022-07-22T09:30:38;18.60;99.90
5792;DHT22;2922;53.482;10.006;2022-07-22T09:33:04;18.60;99.90
5792;DHT22;2922;53.482;10.006;2022-07-22T09:35:31;18.60;99.90
5792;DHT22;2922;53.482;10.006;2022-07-22T09:38:02;18.60;99.90
5792;DHT22;2922;53.482;10.006;2022-07-22T09:40:32;18.50;99.90
5792;DHT22;2922;53.482;10.006;2022-07-22T09:43:02;18.50;99.90
5792;DHT22;2922;53.482;10.006;2022-07-22T09:45:30;18.50;99.90
5792;DHT22;2922;53.482;10.006;2022-07-22T09:47:58;18.50;99.90
5792;DHT22;2922;53.482;10.006;2022-07-22T09:50:29;18.50;99.90
5792;DHT22;2922;53.482;10.006;2022-07-22T09:52:57;18.60;99.90
5792;DHT22;2922;53.482;10.006;2022-07-22T09:55:24;18.60;99.90
5792;DHT22;2922;53.482;10.006;2022-07-22T09:57:51;18.60;99.90
5792;DHT22;2922;53.482;10.006;2022-07-22T10:00:20;18.70;99.90
5792;DHT22;2922;53.482;10.006;2022-07-22T10:02:50;18.70;99.90
5792;DHT22;2922;53.482;10.006;2022-07-22T10:05:19;18.70;99.90
5792;DHT22;2922;53.482;10.006;2022-07-22T10:07:46;18.90;99.90
5792;DHT22;2922;53.482;10.006;2022-07-22T10:10:15;19.20;99.90
5792;DHT22;2922;53.482;10.006;2022-07-22T10:12:42;19.20;99.90
5792;DHT22;2922;53.482;10.006;2022-07-22T10:15:08;19.20;99.90
5792;DHT22;2922;53.482;10.006;2022-07-22T10:17:41;19.30;99.90
5792;DHT22;2922;53.482;10.006;2022-07-22T10:20:08;19.30;99.90
5792;DHT22;2922;53.482;10.006;2022-07-22T10:25:11;19.20;99.90
5792;DHT22;2922;53.482;10.006;2022-07-22T10:27:50;19.30;99.90
5792;DHT22;2922;53.482;10.006;2022-07-22T10:30:22;19.40;99.90
5792;DHT22;2922;53.482;10.006;2022-07-22T10:33:17;19.20;99.90
5792;DHT22;2922;53.482;10.006;2022-07-22T10:38:11;19.10;99.90
5792;DHT22;2922;53.482;10.006;2022-07-22T10:43:26;19.20;99.90
5792;DHT22;2922;53.482;10.006;2022-07-22T10:45:58;19.10;99.90
5792;DHT22;2922;53.482;10.006;2022-07-22T10:51:16;19.20;99.90
5792;DHT22;2922;53.482;10.006;2022-07-22T10:53:52;19.30;99.90
5792;DHT22;2922;53.482;10.006;2022-07-22T10:58:55;19.20;99.90
5792;DHT22;2922;53.482;10.006;2022-07-22T11:01:25;19.20;99.90
5792;DHT22;2922;53.482;10.006;2022-07-22T11:03:51;19.30;99.90
5792;DHT22;2922;53.482;10.006;2022-07-22T11:06:27;19.40;99.90
5792;DHT22;2922;53.482;10.006;2022-07-22T11:09:05;19.60;99.90
5792;DHT22;2922;53.482;10.006;2022-07-22T11:11:33;19.40;99.90
5792;DHT22;2922;53.482;10.006;2022-07-22T11:13:59;19.40;99.90
5792;DHT22;2922;53.482;10.006;2022-07-22T11:16:26;19.50;99.90
5792;DHT22;2922;53.482;10.006;2022-07-22T11:19:00;19.50;99.90
5792;DHT22;2922;53.482;10.006;2022-07-22T11:21:29;19.50;99.90
5792;DHT22;2922;53.482;10.006;2022-07-22T11:23:57;19.70;99.90
5792;DHT22;2922;53.482;10.006;2022-07-22T11:26:33;19.80;99.90
5792;DHT22;2922;53.482;10.006;2022-07-22T11:28:59;19.90;99.90
5792;DHT22;2922;53.482;10.006;2022-07-22T11:31:25;20.00;99.90
5792;DHT22;2922;53.482;10.006;2022-07-22T11:33:51;20.00;99.90
5792;DHT22;2922;53.482;10.006;2022-07-22T11:36:17;20.60;99.90
5792;DHT22;2922;53.482;10.006;2022-07-22T11:38:50;20.60;99.90
5792;DHT22;2922;53.482;10.006;2022-07-22T11:41:17;20.50;99.90
5792;DHT22;2922;53.482;10.006;2022-07-22T11:43:48;20.50;99.90
5792;DHT22;2922;53.482;10.006;2022-07-22T11:46:15;20.60;99.90
5792;DHT22;2922;53.482;10.006;2022-07-22T11:48:42;20.60;99.90
5792;DHT22;2922;53.482;10.006;2022-07-22T11:51:09;20.70;99.90
5792;DHT22;2922;53.482;10.006;2022-07-22T11:53:37;20.60;99.90
5792;DHT22;2922;53.482;10.006;2022-07-22T11:56:04;20.50;99.90
5792;DHT22;2922;53.482;10.006;2022-07-22T11:58:43;20.50;99.90
5792;DHT22;2922;53.482;10.006;2022-07-22T12:01:11;20.60;99.90
5792;DHT22;2922;53.482;10.006;2022-07-22T12:03:39;20.60;99.90
5792;DHT22;2922;53.482;10.006;2022-07-22T12:06:08;20.50;99.90
5792;DHT22;2922;53.482;10.006;2022-07-22T12:08:40;20.40;99.90
5792;DHT22;2922;53.482;10.006;2022-07-22T12:11:07;20.40;99.90
5792;DHT22;2922;53.482;10.006;2022-07-22T12:13:33;20.40;99.90
5792;DHT22;2922;53.482;10.006;2022-07-22T12:15:59;20.30;99.90
5792;DHT22;2922;53.482;10.006;2022-07-22T12:18:26;20.30;99.90
5792;DHT22;2922;53.482;10.006;2022-07-22T12:20:54;20.40;99.90
5792;DHT22;2922;53.482;10.006;2022-07-22T12:23:21;20.50;99.90
5792;DHT22;2922;53.482;10.006;2022-07-22T12:25:59;20.50;99.90
5792;DHT22;2922;53.482;10.006;2022-07-22T12:28:25;20.50;99.90
5792;DHT22;2922;53.482;10.006;2022-07-22T12:30:53;20.30;99.90
5792;DHT22;2922;53.482;10.006;2022-07-22T12:33:20;20.20;99.90
5792;DHT22;2922;53.482;10.006;2022-07-22T12:36:07;20.40;99.90
5792;DHT22;2922;53.482;10.006;2022-07-22T12:38:33;20.40;99.90
5792;DHT22;2922;53.482;10.006;2022-07-22T12:41:21;20.30;99.90
5792;DHT22;2922;53.482;10.006;2022-07-22T12:43:49;20.50;99.90
5792;DHT22;2922;53.482;10.006;2022-07-22T12:46:15;20.60;99.90
5792;DHT22;2922;53.482;10.006;2022-07-22T12:48:52;20.50;99.90
5792;DHT22;2922;53.482;10.006;2022-07-22T12:51:18;20.50;99.90
5792;DHT22;2922;53.482;10.006;2022-07-22T12:53:43;20.40;99.90
5792;DHT22;2922;53.482;10.006;2022-07-22T12:56:09;20.40;99.90
5792;DHT22;2922;53.482;10.006;2022-07-22T12:58:36;20.40;99.90
5792;DHT22;2922;53.482;10.006;2022-07-22T13:01:05;20.50;99.90
5792;DHT22;2922;53.482;10.006;2022-07-22T13:03:31;20.70;99.90
5792;DHT22;2922;53.482;10.006;2022-07-22T13:06:00;20.70;99.90
5792;DHT22;2922;53.482;10.006;2022-07-22T13:08:27;20.70;99.90
5792;DHT22;2922;53.482;10.006;2022-07-22T13:10:53;20.70;99.90
5792;DHT22;2922;53.482;10.006;2022-07-22T13:13:20;20.90;99.90
5792;DHT22;2922;53.482;10.006;2022-07-22T13:15:47;21.00;99.90
5792;DHT22;2922;53.482;10.006;2022-07-22T13:18:12;20.90;99.90
5792;DHT22;2922;53.482;10.006;2022-07-22T13:20:38;20.70;99.90
5792;DHT22;2922;53.482;10.006;2022-07-22T13:23:04;20.80;99.90
5792;DHT22;2922;53.482;10.006;2022-07-22T13:25:30;21.10;99.90
5792;DHT22;2922;53.482;10.006;2022-07-22T13:27:56;21.30;99.90
5792;DHT22;2922;53.482;10.006;2022-07-22T13:30:22;21.10;99.90
5792;DHT22;2922;53.482;10.006;2022-07-22T13:32:48;20.90;99.90
5792;DHT22;2922;53.482;10.006;2022-07-22T13:35:14;20.90;99.90
5792;DHT22;2922;53.482;10.006;2022-07-22T13:37:39;20.90;99.90
5792;DHT22;2922;53.482;10.006;2022-07-22T13:40:05;20.80;99.90
5792;DHT22;2922;53.482;10.006;2022-07-22T13:42:31;21.00;99.90
5792;DHT22;2922;53.482;10.006;2022-07-22T13:44:57;21.30;99.90
5792;DHT22;2922;53.482;10.006;2022-07-22T13:47:23;21.30;99.90
5792;DHT22;2922;53.482;10.006;2022-07-22T13:49:48;21.50;99.90
5792;DHT22;2922;53.482;10.006;2022-07-22T13:52:14;21.30;99.90
5792;DHT22;2922;53.482;10.006;2022-07-22T13:54:41;21.20;99.90
5792;DHT22;2922;53.482;10.006;2022-07-22T13:57:07;21.00;99.90
5792;DHT22;2922;53.482;10.006;2022-07-22T13:59:34;20.80;99.90
5792;DHT22;2922;53.482;10.006;2022-07-22T14:01:59;20.80;99.90
5792;DHT22;2922;53.482;10.006;2022-07-22T14:04:27;20.70;99.90
5792;DHT22;2922;53.482;10.006;2022-07-22T14:06:52;20.70;99.90
5792;DHT22;2922;53.482;10.006;2022-07-22T14:09:18;20.80;99.90
5792;DHT22;2922;53.482;10.006;2022-07-22T14:11:43;20.90;99.90
5792;DHT22;2922;53.482;10.006;2022-07-22T14:14:09;20.70;99.90
5792;DHT22;2922;53.482;10.006;2022-07-22T14:16:36;20.80;99.90
5792;DHT22;2922;53.482;10.006;2022-07-22T14:19:03;20.80;99.90
5792;DHT22;2922;53.482;10.006;2022-07-22T14:21:29;20.90;99.90
5792;DHT22;2922;53.482;10.006;2022-07-22T14:23:54;21.00;99.90
5792;DHT22;2922;53.482;10.006;2022-07-22T14:26:20;20.90;99.90
5792;DHT22;2922;53.482;10.006;2022-07-22T14:28:45;20.60;99.90
5792;DHT22;2922;53.482;10.006;2022-07-22T14:31:11;20.60;99.90
5792;DHT22;2922;53.482;10.006;2022-07-22T14:33:37;20.40;99.90
5792;DHT22;2922;53.482;10.006;2022-07-22T14:36:02;20.40;99.90
5792;DHT22;2922;53.482;10.006;2022-07-22T14:38:28;20.40;99.90
5792;DHT22;2922;53.482;10.006;2022-07-22T14:40:54;20.30;99.90
5792;DHT22;2922;53.482;10.006;2022-07-22T14:43:19;20.60;99.90
5792;DHT22;2922;53.482;10.006;2022-07-22T14:45:45;20.60;99.90
5792;DHT22;2922;53.482;10.006;2022-07-22T14:48:10;20.50;99.90
5792;DHT22;2922;53.482;10.006;2022-07-22T14:50:36;20.60;99.90
5792;DHT22;2922;53.482;10.006;2022-07-22T14:53:02;20.60;99.90
5792;DHT22;2922;53.482;10.006;2022-07-22T14:55:27;20.90;99.90
5792;DHT22;2922;53.482;10.006;2022-07-22T14:57:54;20.80;99.90
5792;DHT22;2922;53.482;10.006;2022-07-22T15:00:20;21.00;99.90
5792;DHT22;2922;53.482;10.006;2022-07-22T15:02:45;21.10;99.90
5792;DHT22;2922;53.482;10.006;2022-07-22T15:05:11;21.20;99.90
5792;DHT22;2922;53.482;10.006;2022-07-22T15:07:37;21.20;99.90
5792;DHT22;2922;53.482;10.006;2022-07-22T15:10:03;21.20;99.90
5792;DHT22;2922;53.482;10.006;2022-07-22T15:12:29;20.80;99.90
5792;DHT22;2922;53.482;10.006;2022-07-22T15:14:55;20.70;99.90
5792;DHT22;2922;53.482;10.006;2022-07-22T15:17:20;20.70;99.90
5792;DHT22;2922;53.482;10.006;2022-07-22T15:19:46;20.60;99.90
5792;DHT22;2922;53.482;10.006;2022-07-22T15:22:11;20.70;99.90
5792;DHT22;2922;53.482;10.006;2022-07-22T15:24:37;20.70;99.90
5792;DHT22;2922;53.482;10.006;2022-07-22T15:27:03;20.70;99.90
5792;DHT22;2922;53.482;10.006;2022-07-22T15:29:28;20.70;99.90
5792;DHT22;2922;53.482;10.006;2022-07-22T15:31:54;20.70;99.90
5792;DHT22;2922;53.482;10.006;2022-07-22T15:34:20;20.60;99.90
5792;DHT22;2922;53.482;10.006;2022-07-22T15:36:45;20.70;99.90
5792;DHT22;2922;53.482;10.006;2022-07-22T15:39:11;20.70;99.90
5792;DHT22;2922;53.482;10.006;2022-07-22T15:41:39;20.60;99.90
5792;DHT22;2922;53.482;10.006;2022-07-22T15:44:06;20.60;99.90
5792;DHT22;2922;53.482;10.006;2022-07-22T15:46:32;20.80;99.90
5792;DHT22;2922;53.482;10.006;2022-07-22T15:48:58;20.80;99.90
5792;DHT22;2922;53.482;10.006;2022-07-22T15:51:24;20.80;99.90
5792;DHT22;2922;53.482;10.006;2022-07-22T15:53:50;20.50;99.90
5792;DHT22;2922;53.482;10.006;2022-07-22T15:56:16;20.50;99.90
5792;DHT22;2922;53.482;10.006;2022-07-22T15:58:44;20.40;99.90
5792;DHT22;2922;53.482;10.006;2022-07-22T16:01:28;20.30;99.90